This is the latest recevied weather packets stored in our database for station/object SR2GKG-13. If no packets are shown the sender has not sent any weather packets the latest 10 day(s).
| Time | Temp. | Humidity | Pressure | Rain* | Wind** | Luminosity | Snow |
|---|---|---|---|---|---|---|---|
| 1788242582 | 17.78° C | 81% | 1002.2 hPa | - | - | - | - |
| 1788241682 | 17.78° C | 88% | 1002.1 hPa | - | - | - | - |
| 1788240782 | 16.67° C | 95% | 1002.1 hPa | - | - | - | - |
| 1788239881 | 15° C | 100% | 1002.1 hPa | - | - | - | - |
| 1788238981 | 15° C | 100% | 1002 hPa | - | - | - | - |
| 1788238081 | 15° C | 100% | 1001.9 hPa | - | - | - | - |
| 1788237181 | 15° C | 100% | 1001.8 hPa | - | - | - | - |
| 1788236281 | 15° C | 100% | 1001.6 hPa | - | - | - | - |
| 1788216479 | 17.22° C | 100% | 1000.6 hPa | - | - | - | - |
| 1788214679 | 17.78° C | 100% | 1000.7 hPa | - | - | - | - |
| 1788213779 | 17.78° C | 100% | 1000.7 hPa | - | - | - | - |
| 1788211978 | 17.78° C | 100% | 1000.9 hPa | - | - | - | - |
| 1788211078 | 17.78° C | 100% | 1000.9 hPa | - | - | - | - |
| 1788210178 | 17.78° C | 100% | 1001.1 hPa | - | - | - | - |
| 1788209278 | 17.22° C | 100% | 1001 hPa | - | - | - | - |
| 1788207478 | 17.78° C | 100% | 1000.9 hPa | - | - | - | - |
| 1788206578 | 17.78° C | 100% | 1001 hPa | - | - | - | - |
| 1788205678 | 17.78° C | 100% | 1001 hPa | - | - | - | - |
| 1788204778 | 17.78° C | 100% | 1001 hPa | - | - | - | - |
| 1788203877 | 17.78° C | 100% | 1001 hPa | - | - | - | - |
| 1788201177 | 17.78° C | 98% | 1001 hPa | - | - | - | - |
| 1788200277 | 17.78° C | 95% | 1000.9 hPa | - | - | - | - |
| 1788199377 | 18.33° C | 89% | 1000.7 hPa | - | - | - | - |
| 1788197577 | 19.44° C | 83% | 1000.6 hPa | - | - | - | - |
| 1788196677 | 20° C | 79% | 1000.5 hPa | - | - | - | - |
* Rain since midnight (hover to see other rain measurements)
** Current wind speed in m/s (hover to see current wind gust speed)